Time,TemperatureF,DewpointF,PressureIn,WindDirection,WindDirectionDegrees,WindSpeedMPH,WindSpeedGustMPH,Humidity,HourlyPrecipIn,Conditions,Clouds,dailyrainin,SoftwareType,DateUTC
2013-06-09 00:02:00,65.0,44.0,-100.00,SSW,196,2.0,5.0,46,-99.99,,,-99.99,,2013-06-09 07:02:00,
2013-06-09 00:12:00,66.0,44.0,-100.00,SSE,161,1.0,3.0,45,-99.99,,,-99.99,,2013-06-09 07:12:00,
2013-06-09 00:22:00,66.0,44.0,-100.00,SSE,161,1.0,3.0,45,-99.99,,,-99.99,,2013-06-09 07:22:00,
2013-06-09 00:32:00,66.0,44.0,-100.00,SSE,161,1.0,3.0,45,-99.99,,,-99.99,,2013-06-09 07:32:00,
2013-06-09 00:52:00,66.0,45.0,-100.00,SSE,164,1.0,3.0,47,-99.99,,,-99.99,,2013-06-09 07:52:00,
2013-06-09 01:02:00,66.0,45.0,-100.00,SSE,164,1.0,3.0,47,-99.99,,,-99.99,,2013-06-09 08:02:00,
2013-06-09 01:12:00,64.0,45.0,-100.00,SE,126,1.0,4.0,51,-99.99,,,-99.99,,2013-06-09 08:12:00,
2013-06-09 01:22:00,64.0,45.0,-100.00,SE,126,1.0,4.0,51,-99.99,,,-99.99,,2013-06-09 08:22:00,
2013-06-09 01:32:00,64.0,45.0,-100.00,SE,126,1.0,4.0,51,-99.99,,,-99.99,,2013-06-09 08:32:00,
2013-06-09 01:42:00,64.0,45.0,-100.00,SE,126,1.0,4.0,51,-99.99,,,-99.99,,2013-06-09 08:42:00,
2013-06-09 01:53:00,63.0,48.0,-100.00,SE,130,0.0,3.0,57,-99.99,,,-99.99,,2013-06-09 08:53:00,
2013-06-09 02:02:00,63.0,48.0,-100.00,SE,130,0.0,3.0,57,-99.99,,,-99.99,,2013-06-09 09:02:00,
2013-06-09 02:12:00,63.0,48.0,-100.00,SE,130,0.0,3.0,57,-99.99,,,-99.99,,2013-06-09 09:12:00,
2013-06-09 02:22:00,64.0,46.0,-100.00,SSE,151,1.0,3.0,52,-99.99,,,-99.99,,2013-06-09 09:22:00,
2013-06-09 02:33:00,65.0,41.0,-100.00,SSE,161,1.0,4.0,41,-99.99,,,-99.99,,2013-06-09 09:33:00,
2013-06-09 02:43:00,65.0,41.0,-100.00,SSE,161,1.0,4.0,41,-99.99,,,-99.99,,2013-06-09 09:43:00,
2013-06-09 02:52:00,65.0,41.0,-100.00,SSE,161,1.0,4.0,41,-99.99,,,-99.99,,2013-06-09 09:52:00,
2013-06-09 03:03:00,63.0,41.0,-100.00,SE,138,1.0,6.0,44,-99.99,,,-99.99,,2013-06-09 10:03:00,
2013-06-09 03:12:00,63.0,41.0,-100.00,SE,138,1.0,6.0,44,-99.99,,,-99.99,,2013-06-09 10:12:00,
2013-06-09 03:23:00,62.0,38.0,-100.00,East,96,1.0,3.0,41,-99.99,,,-99.99,,2013-06-09 10:23:00,
2013-06-09 03:32:00,62.0,38.0,-100.00,East,96,1.0,3.0,41,-99.99,,,-99.99,,2013-06-09 10:32:00,
2013-06-09 03:43:00,62.0,40.0,-100.00,SE,143,1.0,3.0,44,-99.99,,,-99.99,,2013-06-09 10:43:00,
2013-06-09 03:52:00,62.0,38.0,-100.00,SE,143,2.0,5.0,41,-99.99,,,-99.99,,2013-06-09 10:52:00,
2013-06-09 04:02:00,62.0,38.0,-100.00,SE,143,2.0,5.0,41,-99.99,,,-99.99,,2013-06-09 11:02:00,
2013-06-09 04:12:00,62.0,38.0,-100.00,SE,143,2.0,5.0,41,-99.99,,,-99.99,,2013-06-09 11:12:00,
2013-06-09 04:22:00,62.0,37.0,-100.00,SSE,150,1.0,3.0,40,-99.99,,,-99.99,,2013-06-09 11:22:00,
2013-06-09 04:32:00,63.0,35.0,-100.00,SSE,160,1.0,3.0,35,-99.99,,,-99.99,,2013-06-09 11:32:00,
2013-06-09 04:42:00,63.0,35.0,-100.00,SSE,160,1.0,3.0,35,-99.99,,,-99.99,,2013-06-09 11:42:00,
2013-06-09 04:52:00,63.0,35.0,-100.00,SSE,160,1.0,3.0,35,-99.99,,,-99.99,,2013-06-09 11:52:00,
2013-06-09 05:02:00,63.0,35.0,-100.00,SSE,160,1.0,3.0,35,-99.99,,,-99.99,,2013-06-09 12:02:00,
2013-06-09 05:12:00,63.0,33.0,-100.00,South,169,2.0,3.0,32,-99.99,,,-99.99,,2013-06-09 12:12:00,
2013-06-09 05:22:00,63.0,33.0,-100.00,South,169,2.0,3.0,32,-99.99,,,-99.99,,2013-06-09 12:22:00,
2013-06-09 05:32:00,60.0,36.0,-100.00,ESE,116,0.0,1.0,41,-99.99,,,-99.99,,2013-06-09 12:32:00,
2013-06-09 05:42:00,60.0,36.0,-100.00,ESE,116,0.0,1.0,41,-99.99,,,-99.99,,2013-06-09 12:42:00,
2013-06-09 05:52:00,60.0,36.0,-100.00,SSE,165,1.0,3.0,40,-99.99,,,-99.99,,2013-06-09 12:52:00,
2013-06-09 06:02:00,60.0,36.0,-100.00,SSE,165,1.0,3.0,40,-99.99,,,-99.99,,2013-06-09 13:02:00,
2013-06-09 06:12:00,61.0,35.0,-100.00,SSE,161,1.0,2.0,38,-99.99,,,-99.99,,2013-06-09 13:12:00,
2013-06-09 06:22:00,61.0,35.0,-100.00,SSE,161,1.0,2.0,38,-99.99,,,-99.99,,2013-06-09 13:22:00,
2013-06-09 06:32:00,61.0,34.0,-100.00,SSE,162,1.0,2.0,36,-99.99,,,-99.99,,2013-06-09 13:32:00,
2013-06-09 06:42:00,61.0,34.0,-100.00,SSE,162,1.0,2.0,36,-99.99,,,-99.99,,2013-06-09 13:42:00,
2013-06-09 06:52:00,60.0,37.0,-100.00,East,96,0.0,1.0,42,-99.99,,,-99.99,,2013-06-09 13:52:00,
2013-06-09 07:02:00,60.0,37.0,-100.00,East,96,0.0,1.0,42,-99.99,,,-99.99,,2013-06-09 14:02:00,
2013-06-09 07:12:00,60.0,37.0,-100.00,SSE,167,1.0,3.0,43,-99.99,,,-99.99,,2013-06-09 14:12:00,
2013-06-09 07:22:00,60.0,37.0,-100.00,SSE,167,1.0,3.0,43,-99.99,,,-99.99,,2013-06-09 14:22:00,
2013-06-09 07:32:00,60.0,37.0,-100.00,SSE,167,1.0,3.0,43,-99.99,,,-99.99,,2013-06-09 14:32:00,
2013-06-09 07:42:00,60.0,37.0,-100.00,SSE,167,1.0,3.0,43,-99.99,,,-99.99,,2013-06-09 14:42:00,
2013-06-09 08:43:00,66.0,45.0,-100.00,NW,312,0.0,2.0,47,-99.99,,,-99.99,,2013-06-09 15:43:00,
2013-06-09 08:53:00,66.0,45.0,-100.00,NW,312,0.0,2.0,47,-99.99,,,-99.99,,2013-06-09 15:53:00,
2013-06-09 09:03:00,65.0,50.0,-100.00,NNW,328,0.0,3.0,58,-99.99,,,-99.99,,2013-06-09 16:03:00,
2013-06-09 09:13:00,65.0,50.0,-100.00,NNW,328,0.0,3.0,58,-99.99,,,-99.99,,2013-06-09 16:13:00,
2013-06-09 09:23:00,65.0,51.0,-100.00,NW,318,1.0,4.0,60,-99.99,,,-99.99,,2013-06-09 16:23:00,
2013-06-09 09:33:00,65.0,51.0,-100.00,NW,308,1.0,3.0,61,-99.99,,,-99.99,,2013-06-09 16:33:00,
2013-06-09 09:42:00,65.0,51.0,-100.00,NW,308,1.0,3.0,61,-99.99,,,-99.99,,2013-06-09 16:42:00,
2013-06-09 09:53:00,65.0,51.0,-100.00,NW,308,1.0,3.0,61,-99.99,,,-99.99,,2013-06-09 16:53:00,
2013-06-09 10:02:00,66.0,54.0,-100.00,NW,326,0.0,3.0,65,-99.99,,,-99.99,,2013-06-09 17:02:00,
2013-06-09 10:12:00,66.0,54.0,-100.00,NW,326,0.0,3.0,65,-99.99,,,-99.99,,2013-06-09 17:12:00,
2013-06-09 10:22:00,67.0,51.0,-100.00,NW,311,0.0,3.0,57,-99.99,,,-99.99,,2013-06-09 17:22:00,
2013-06-09 10:32:00,67.0,51.0,-100.00,NW,311,0.0,3.0,57,-99.99,,,-99.99,,2013-06-09 17:32:00,
2013-06-09 10:52:00,69.0,46.0,-100.00,NW,305,1.0,3.0,44,-99.99,,,-99.99,,2013-06-09 17:52:00,
2013-06-09 11:02:00,69.0,46.0,-100.00,NW,305,1.0,3.0,44,-99.99,,,-99.99,,2013-06-09 18:02:00,
2013-06-09 11:12:00,69.0,46.0,-100.00,NW,305,1.0,3.0,44,-99.99,,,-99.99,,2013-06-09 18:12:00,
2013-06-09 11:33:00,74.0,45.0,-100.00,NW,305,1.0,4.0,35,-99.99,,,-99.99,,2013-06-09 18:33:00,
2013-06-09 11:42:00,74.0,45.0,-100.00,NW,305,1.0,4.0,35,-99.99,,,-99.99,,2013-06-09 18:42:00,
2013-06-09 11:52:00,75.0,36.0,-100.00,WNW,292,2.0,4.0,24,-99.99,,,-99.99,,2013-06-09 18:52:00,
2013-06-09 12:02:00,75.0,36.0,-100.00,WNW,292,2.0,4.0,24,-99.99,,,-99.99,,2013-06-09 19:02:00,
2013-06-09 12:12:00,73.0,42.0,-100.00,West,280,2.0,4.0,33,-99.99,,,-99.99,,2013-06-09 19:12:00,
2013-06-09 12:22:00,73.0,42.0,-100.00,West,280,2.0,4.0,33,-99.99,,,-99.99,,2013-06-09 19:22:00,
2013-06-09 12:32:00,75.0,43.0,-100.00,NW,312,1.0,3.0,32,-99.99,,,-99.99,,2013-06-09 19:32:00,
2013-06-09 12:42:00,75.0,43.0,-100.00,NW,312,1.0,3.0,32,-99.99,,,-99.99,,2013-06-09 19:42:00,
2013-06-09 12:52:00,73.0,49.0,-100.00,NNW,337,1.0,4.0,42,-99.99,,,-99.99,,2013-06-09 19:52:00,
2013-06-09 13:02:00,73.0,49.0,-100.00,NNW,337,1.0,4.0,42,-99.99,,,-99.99,,2013-06-09 20:02:00,
2013-06-09 13:12:00,73.0,52.0,-100.00,South,178,0.0,2.0,47,-99.99,,,-99.99,,2013-06-09 20:12:00,
2013-06-09 13:22:00,73.0,52.0,-100.00,South,178,0.0,2.0,47,-99.99,,,-99.99,,2013-06-09 20:22:00,
2013-06-09 13:32:00,72.0,46.0,-100.00,SSE,151,1.0,2.0,40,-99.99,,,-99.99,,2013-06-09 20:32:00,
2013-06-09 13:42:00,72.0,46.0,-100.00,SSE,151,1.0,2.0,40,-99.99,,,-99.99,,2013-06-09 20:42:00,
2013-06-09 13:52:00,71.0,46.0,-100.00,South,176,1.0,2.0,41,-99.99,,,-99.99,,2013-06-09 20:52:00,
2013-06-09 14:02:00,71.0,46.0,-100.00,South,176,1.0,2.0,41,-99.99,,,-99.99,,2013-06-09 21:02:00,
2013-06-09 14:12:00,71.0,46.0,-100.00,South,176,1.0,2.0,41,-99.99,,,-99.99,,2013-06-09 21:12:00,
2013-06-09 14:22:00,72.0,45.0,-100.00,SSE,158,1.0,2.0,38,-99.99,,,-99.99,,2013-06-09 21:22:00,
2013-06-09 14:33:00,72.0,45.0,-100.00,SSE,158,1.0,2.0,38,-99.99,,,-99.99,,2013-06-09 21:33:00,
2013-06-09 14:43:00,73.0,44.0,-100.00,SSW,198,2.0,6.0,35,-99.99,,,-99.99,,2013-06-09 21:43:00,
2013-06-09 14:51:00,67.0,46.0,-100.00,East,83,4.0,10.0,47,-99.99,,,-99.99,,2013-06-09 21:51:00,
2013-06-09 14:53:00,64.0,49.0,-100.00,SSE,157,4.0,6.0,59,-99.99,,,-99.99,,2013-06-09 21:53:00,
2013-06-09 15:02:00,64.0,49.0,-100.00,SSE,157,4.0,6.0,59,-99.99,,,-99.99,,2013-06-09 22:02:00,
2013-06-09 15:22:00,67.0,46.0,-100.00,East,83,4.0,10.0,47,-99.99,,,-99.99,,2013-06-09 22:22:00,
2013-06-09 15:33:00,67.0,46.0,-100.00,East,83,4.0,10.0,47,-99.99,,,-99.99,,2013-06-09 22:33:00,
2013-06-09 15:42:00,67.0,46.0,-100.00,East,83,4.0,10.0,47,-99.99,,,-99.99,,2013-06-09 22:42:00,
2013-06-09 16:02:00,69.0,51.0,-100.00,SSE,162,2.0,12.0,52,-99.99,,,-99.99,,2013-06-09 23:02:00,
2013-06-09 16:12:00,69.0,51.0,-100.00,SSE,162,2.0,12.0,52,-99.99,,,-99.99,,2013-06-09 23:12:00,
2013-06-09 16:22:00,68.0,43.0,-100.00,South,189,3.0,7.0,41,-99.99,,,-99.99,,2013-06-09 23:22:00,
2013-06-09 16:32:00,69.0,47.0,-100.00,SE,126,4.0,11.0,45,-99.99,,,-99.99,,2013-06-09 23:32:00,
2013-06-09 16:42:00,69.0,47.0,-100.00,SE,126,4.0,11.0,45,-99.99,,,-99.99,,2013-06-09 23:42:00,
2013-06-09 16:52:00,73.0,33.0,-100.00,ESE,103,2.0,14.0,23,-99.99,,,-99.99,,2013-06-09 23:52:00,
2013-06-09 17:02:00,73.0,33.0,-100.00,ESE,103,2.0,14.0,23,-99.99,,,-99.99,,2013-06-10 00:02:00,
2013-06-09 17:12:00,73.0,33.0,-100.00,ESE,103,2.0,14.0,23,-99.99,,,-99.99,,2013-06-10 00:12:00,
2013-06-09 17:22:00,73.0,33.0,-100.00,ESE,103,2.0,14.0,23,-99.99,,,-99.99,,2013-06-10 00:22:00,
2013-06-09 17:32:00,75.0,38.0,-100.00,NE,34,5.0,17.0,26,-99.99,,,-99.99,,2013-06-10 00:32:00,
2013-06-09 17:42:00,75.0,38.0,-100.00,NE,34,5.0,17.0,26,-99.99,,,-99.99,,2013-06-10 00:42:00,
2013-06-09 17:52:00,73.0,37.0,-100.00,ESE,120,3.0,14.0,27,-99.99,,,-99.99,,2013-06-10 00:52:00,
2013-06-09 18:02:00,73.0,37.0,-100.00,ESE,120,3.0,14.0,27,-99.99,,,-99.99,,2013-06-10 01:02:00,
2013-06-09 18:12:00,73.0,37.0,-100.00,ESE,120,3.0,14.0,27,-99.99,,,-99.99,,2013-06-10 01:12:00,
2013-06-09 18:32:00,70.0,45.0,-100.00,South,191,1.0,3.0,41,-99.99,,,-99.99,,2013-06-10 01:32:00,
2013-06-09 18:43:00,70.0,45.0,-100.00,South,191,1.0,3.0,41,-99.99,,,-99.99,,2013-06-10 01:43:00,
2013-06-09 18:52:00,69.0,47.0,-100.00,South,179,1.0,4.0,46,-99.99,,,-99.99,,2013-06-10 01:52:00,
2013-06-09 19:02:00,69.0,47.0,-100.00,South,179,1.0,4.0,46,-99.99,,,-99.99,,2013-06-10 02:02:00,
2013-06-09 19:12:00,68.0,45.0,-100.00,SSE,160,1.0,3.0,44,-99.99,,,-99.99,,2013-06-10 02:12:00,
2013-06-09 19:22:00,68.0,45.0,-100.00,SSE,160,1.0,3.0,44,-99.99,,,-99.99,,2013-06-10 02:22:00,
2013-06-09 19:32:00,68.0,48.0,-100.00,South,169,1.0,2.0,49,-99.99,,,-99.99,,2013-06-10 02:32:00,
2013-06-09 19:42:00,68.0,48.0,-100.00,South,169,1.0,2.0,49,-99.99,,,-99.99,,2013-06-10 02:42:00,
2013-06-09 19:52:00,67.0,49.0,-100.00,SE,133,0.0,1.0,53,-99.99,,,-99.99,,2013-06-10 02:52:00,
2013-06-09 20:02:00,67.0,49.0,-100.00,SE,133,0.0,1.0,53,-99.99,,,-99.99,,2013-06-10 03:02:00,
2013-06-09 20:12:00,67.0,49.0,-100.00,SE,133,0.0,1.0,53,-99.99,,,-99.99,,2013-06-10 03:12:00,
2013-06-09 20:22:00,67.0,49.0,-100.00,SE,133,0.0,1.0,53,-99.99,,,-99.99,,2013-06-10 03:22:00,
2013-06-09 20:43:00,64.0,47.0,-100.00,SSE,162,1.0,3.0,55,-99.99,,,-99.99,,2013-06-10 03:43:00,
2013-06-09 20:53:00,64.0,47.0,-100.00,SSE,162,1.0,3.0,55,-99.99,,,-99.99,,2013-06-10 03:53:00,
2013-06-09 21:03:00,64.0,47.0,-100.00,SSE,152,1.0,2.0,53,-99.99,,,-99.99,,2013-06-10 04:03:00,
2013-06-09 21:12:00,64.0,47.0,-100.00,SSE,152,1.0,2.0,53,-99.99,,,-99.99,,2013-06-10 04:12:00,
2013-06-09 21:23:00,63.0,48.0,-100.00,SSE,155,1.0,2.0,58,-99.99,,,-99.99,,2013-06-10 04:23:00,
2013-06-09 21:33:00,63.0,48.0,-100.00,SSE,155,1.0,2.0,58,-99.99,,,-99.99,,2013-06-10 04:33:00,
2013-06-09 21:42:00,62.0,49.0,-100.00,SSE,167,1.0,2.0,63,-99.99,,,-99.99,,2013-06-10 04:42:00,
2013-06-09 21:52:00,62.0,49.0,-100.00,SSE,167,1.0,2.0,63,-99.99,,,-99.99,,2013-06-10 04:52:00,
2013-06-09 22:02:00,62.0,49.0,-100.00,SSE,167,1.0,2.0,63,-99.99,,,-99.99,,2013-06-10 05:02:00,
2013-06-09 22:12:00,62.0,49.0,-100.00,SSE,167,1.0,2.0,63,-99.99,,,-99.99,,2013-06-10 05:12:00,
2013-06-09 22:32:00,61.0,52.0,-100.00,SE,127,0.0,2.0,71,-99.99,,,-99.99,,2013-06-10 05:32:00,
2013-06-09 22:42:00,61.0,52.0,-100.00,SE,127,0.0,2.0,71,-99.99,,,-99.99,,2013-06-10 05:42:00,
2013-06-09 22:52:00,62.0,52.0,-100.00,ESE,106,0.0,2.0,70,-99.99,,,-99.99,,2013-06-10 05:52:00,
2013-06-09 23:02:00,62.0,52.0,-100.00,ESE,106,0.0,2.0,70,-99.99,,,-99.99,,2013-06-10 06:02:00,
2013-06-09 23:12:00,64.0,54.0,-100.00,South,176,1.0,3.0,69,-99.99,,,-99.99,,2013-06-10 06:12:00,
2013-06-09 23:22:00,64.0,54.0,-100.00,South,176,1.0,3.0,69,-99.99,,,-99.99,,2013-06-10 06:22:00,
2013-06-09 23:32:00,63.0,54.0,-100.00,SSE,165,2.0,3.0,73,-99.99,,,-99.99,,2013-06-10 06:32:00,
2013-06-09 23:42:00,63.0,54.0,-100.00,SSE,165,2.0,3.0,73,-99.99,,,-99.99,,2013-06-10 06:42:00,
2013-06-09 23:52:00,63.0,55.0,-100.00,South,172,2.0,3.0,74,-99.99,,,-99.99,,2013-06-10 06:52:00,